sensor_id;sensor_type;location;lat;lon;timestamp;P1;durP1;ratioP1;P2;durP2;ratioP2
25129;SDS011;13308;50.860;13.664;2023-05-24T05:24:11;5.35;;;3.03;;
25129;SDS011;13308;50.860;13.664;2023-05-24T05:26:36;7.05;;;2.67;;
25129;SDS011;13308;50.860;13.664;2023-05-24T05:29:02;11.20;;;3.33;;
25129;SDS011;13308;50.860;13.664;2023-05-24T05:31:28;5.45;;;2.95;;
25129;SDS011;13308;50.860;13.664;2023-05-24T05:33:53;9.82;;;3.25;;
25129;SDS011;13308;50.860;13.664;2023-05-24T05:36:19;11.00;;;3.20;;
25129;SDS011;13308;50.860;13.664;2023-05-24T05:38:44;9.27;;;2.90;;
25129;SDS011;13308;50.860;13.664;2023-05-24T05:41:09;10.48;;;2.85;;
25129;SDS011;13308;50.860;13.664;2023-05-24T05:43:35;9.82;;;3.53;;
25129;SDS011;13308;50.860;13.664;2023-05-24T05:46:00;12.07;;;3.65;;
25129;SDS011;13308;50.860;13.664;2023-05-24T05:48:25;9.73;;;2.97;;
25129;SDS011;13308;50.860;13.664;2023-05-24T05:50:51;8.82;;;3.20;;
25129;SDS011;13308;50.860;13.664;2023-05-24T05:53:16;9.27;;;3.03;;
25129;SDS011;13308;50.860;13.664;2023-05-24T05:55:41;10.38;;;3.25;;
25129;SDS011;13308;50.860;13.664;2023-05-24T05:58:07;9.82;;;3.95;;
25129;SDS011;13308;50.860;13.664;2023-05-24T06:00:32;7.43;;;3.33;;
25129;SDS011;13308;50.860;13.664;2023-05-24T06:02:57;8.43;;;3.75;;
25129;SDS011;13308;50.860;13.664;2023-05-24T06:05:23;7.30;;;3.50;;
25129;SDS011;13308;50.860;13.664;2023-05-24T06:07:48;6.82;;;2.90;;
25129;SDS011;13308;50.860;13.664;2023-05-24T06:10:13;10.07;;;2.97;;
25129;SDS011;13308;50.860;13.664;2023-05-24T06:12:39;13.38;;;3.13;;
25129;SDS011;13308;50.860;13.664;2023-05-24T06:15:05;13.50;;;3.33;;
25129;SDS011;13308;50.860;13.664;2023-05-24T06:17:32;7.60;;;3.38;;
25129;SDS011;13308;50.860;13.664;2023-05-24T06:19:58;7.68;;;3.00;;
25129;SDS011;13308;50.860;13.664;2023-05-24T06:22:24;8.75;;;3.00;;
25129;SDS011;13308;50.860;13.664;2023-05-24T06:24:51;8.77;;;3.22;;
25129;SDS011;13308;50.860;13.664;2023-05-24T06:27:16;7.25;;;3.83;;
25129;SDS011;13308;50.860;13.664;2023-05-24T06:29:42;8.10;;;3.20;;
25129;SDS011;13308;50.860;13.664;2023-05-24T06:32:07;8.85;;;3.10;;
25129;SDS011;13308;50.860;13.664;2023-05-24T06:34:32;9.23;;;3.35;;
25129;SDS011;13308;50.860;13.664;2023-05-24T06:36:58;7.38;;;3.08;;
25129;SDS011;13308;50.860;13.664;2023-05-24T06:39:23;5.70;;;3.28;;
25129;SDS011;13308;50.860;13.664;2023-05-24T06:41:49;7.97;;;3.33;;
25129;SDS011;13308;50.860;13.664;2023-05-24T06:44:22;9.68;;;2.95;;
25129;SDS011;13308;50.860;13.664;2023-05-24T06:46:48;8.07;;;2.72;;
25129;SDS011;13308;50.860;13.664;2023-05-24T06:49:13;8.32;;;3.10;;
25129;SDS011;13308;50.860;13.664;2023-05-24T06:51:38;7.78;;;3.05;;
25129;SDS011;13308;50.860;13.664;2023-05-24T06:54:03;9.90;;;3.88;;
25129;SDS011;13308;50.860;13.664;2023-05-24T06:56:29;7.35;;;3.10;;
25129;SDS011;13308;50.860;13.664;2023-05-24T06:58:55;8.27;;;3.03;;
25129;SDS011;13308;50.860;13.664;2023-05-24T07:01:20;13.43;;;3.28;;
25129;SDS011;13308;50.860;13.664;2023-05-24T07:03:47;5.72;;;2.90;;
25129;SDS011;13308;50.860;13.664;2023-05-24T07:06:13;10.35;;;3.55;;
25129;SDS011;13308;50.860;13.664;2023-05-24T07:08:40;6.28;;;2.78;;
25129;SDS011;13308;50.860;13.664;2023-05-24T07:11:08;12.68;;;3.42;;
25129;SDS011;13308;50.860;13.664;2023-05-24T07:13:33;12.43;;;3.42;;
25129;SDS011;13308;50.860;13.664;2023-05-24T07:15:59;9.65;;;3.05;;
25129;SDS011;13308;50.860;13.664;2023-05-24T07:18:24;6.65;;;2.95;;
25129;SDS011;13308;50.860;13.664;2023-05-24T07:20:50;16.30;;;3.92;;
25129;SDS011;13308;50.860;13.664;2023-05-24T07:23:15;9.20;;;3.47;;
25129;SDS011;13308;50.860;13.664;2023-05-24T07:25:41;9.95;;;3.10;;
25129;SDS011;13308;50.860;13.664;2023-05-24T07:28:06;8.90;;;3.03;;
25129;SDS011;13308;50.860;13.664;2023-05-24T07:30:31;7.10;;;2.97;;
25129;SDS011;13308;50.860;13.664;2023-05-24T07:32:58;4.60;;;3.05;;
25129;SDS011;13308;50.860;13.664;2023-05-24T07:35:23;8.45;;;3.90;;
25129;SDS011;13308;50.860;13.664;2023-05-24T07:37:49;7.50;;;3.47;;
25129;SDS011;13308;50.860;13.664;2023-05-24T07:40:14;9.30;;;3.55;;
25129;SDS011;13308;50.860;13.664;2023-05-24T07:42:39;7.35;;;3.60;;
25129;SDS011;13308;50.860;13.664;2023-05-24T07:45:06;6.65;;;3.70;;
25129;SDS011;13308;50.860;13.664;2023-05-24T07:47:35;10.13;;;3.63;;
25129;SDS011;13308;50.860;13.664;2023-05-24T07:50:01;9.10;;;4.35;;
25129;SDS011;13308;50.860;13.664;2023-05-24T07:52:27;8.63;;;3.35;;
25129;SDS011;13308;50.860;13.664;2023-05-24T07:54:52;6.45;;;4.30;;
25129;SDS011;13308;50.860;13.664;2023-05-24T07:57:18;10.77;;;4.03;;
25129;SDS011;13308;50.860;13.664;2023-05-24T07:59:44;8.77;;;3.65;;
25129;SDS011;13308;50.860;13.664;2023-05-24T08:02:09;8.15;;;3.63;;
25129;SDS011;13308;50.860;13.664;2023-05-24T08:04:35;10.80;;;3.88;;
25129;SDS011;13308;50.860;13.664;2023-05-24T08:07:01;10.95;;;3.60;;
25129;SDS011;13308;50.860;13.664;2023-05-24T08:09:27;14.27;;;3.72;;
25129;SDS011;13308;50.860;13.664;2023-05-24T08:11:54;9.82;;;3.70;;
25129;SDS011;13308;50.860;13.664;2023-05-24T08:14:20;11.30;;;3.47;;
25129;SDS011;13308;50.860;13.664;2023-05-24T08:16:45;10.63;;;3.78;;
25129;SDS011;13308;50.860;13.664;2023-05-24T08:19:11;12.07;;;3.40;;
25129;SDS011;13308;50.860;13.664;2023-05-24T08:21:36;9.40;;;3.80;;
25129;SDS011;13308;50.860;13.664;2023-05-24T08:24:02;9.90;;;3.92;;
25129;SDS011;13308;50.860;13.664;2023-05-24T08:26:27;13.82;;;3.85;;
25129;SDS011;13308;50.860;13.664;2023-05-24T08:28:52;6.90;;;3.72;;
25129;SDS011;13308;50.860;13.664;2023-05-24T08:31:18;10.32;;;3.58;;
25129;SDS011;13308;50.860;13.664;2023-05-24T08:33:44;10.70;;;4.10;;
25129;SDS011;13308;50.860;13.664;2023-05-24T08:36:14;11.80;;;3.60;;
25129;SDS011;13308;50.860;13.664;2023-05-24T08:38:39;11.80;;;3.50;;
25129;SDS011;13308;50.860;13.664;2023-05-24T08:41:04;11.73;;;4.03;;
25129;SDS011;13308;50.860;13.664;2023-05-24T08:43:32;14.48;;;4.68;;
25129;SDS011;13308;50.860;13.664;2023-05-24T08:45:57;10.43;;;4.68;;
25129;SDS011;13308;50.860;13.664;2023-05-24T08:48:25;9.43;;;4.63;;
25129;SDS011;13308;50.860;13.664;2023-05-24T08:50:52;10.02;;;4.18;;
25129;SDS011;13308;50.860;13.664;2023-05-24T08:53:17;7.07;;;4.35;;
25129;SDS011;13308;50.860;13.664;2023-05-24T08:55:45;9.75;;;3.72;;
25129;SDS011;13308;50.860;13.664;2023-05-24T08:58:13;9.93;;;4.18;;
25129;SDS011;13308;50.860;13.664;2023-05-24T09:00:40;9.27;;;3.65;;
25129;SDS011;13308;50.860;13.664;2023-05-24T09:03:06;7.70;;;3.53;;
25129;SDS011;13308;50.860;13.664;2023-05-24T09:05:32;7.20;;;3.75;;
25129;SDS011;13308;50.860;13.664;2023-05-24T09:07:57;10.18;;;4.22;;
25129;SDS011;13308;50.860;13.664;2023-05-24T09:10:24;9.23;;;3.70;;
25129;SDS011;13308;50.860;13.664;2023-05-24T09:12:54;13.30;;;4.13;;
25129;SDS011;13308;50.860;13.664;2023-05-24T09:15:21;12.40;;;4.90;;
25129;SDS011;13308;50.860;13.664;2023-05-24T09:17:47;12.40;;;3.83;;
25129;SDS011;13308;50.860;13.664;2023-05-24T09:20:12;12.82;;;4.05;;
25129;SDS011;13308;50.860;13.664;2023-05-24T09:22:39;8.57;;;4.25;;
25129;SDS011;13308;50.860;13.664;2023-05-24T09:25:06;10.82;;;4.40;;
25129;SDS011;13308;50.860;13.664;2023-05-24T09:27:32;11.35;;;4.30;;
25129;SDS011;13308;50.860;13.664;2023-05-24T09:29:59;15.68;;;4.63;;
25129;SDS011;13308;50.860;13.664;2023-05-24T09:32:25;5.22;;;3.88;;
25129;SDS011;13308;50.860;13.664;2023-05-24T09:34:52;8.25;;;4.22;;
25129;SDS011;13308;50.860;13.664;2023-05-24T09:37:21;12.77;;;4.20;;
25129;SDS011;13308;50.860;13.664;2023-05-24T09:39:48;8.02;;;4.15;;
25129;SDS011;13308;50.860;13.664;2023-05-24T09:42:18;10.38;;;4.63;;
25129;SDS011;13308;50.860;13.664;2023-05-24T09:44:48;16.30;;;4.35;;
25129;SDS011;13308;50.860;13.664;2023-05-24T09:47:26;13.63;;;4.53;;
25129;SDS011;13308;50.860;13.664;2023-05-24T09:49:53;8.65;;;4.38;;
25129;SDS011;13308;50.860;13.664;2023-05-24T09:52:18;8.38;;;4.28;;
25129;SDS011;13308;50.860;13.664;2023-05-24T09:54:45;9.65;;;4.00;;
25129;SDS011;13308;50.860;13.664;2023-05-24T09:57:14;7.60;;;4.38;;
25129;SDS011;13308;50.860;13.664;2023-05-24T09:59:40;14.80;;;5.07;;
25129;SDS011;13308;50.860;13.664;2023-05-24T10:02:07;9.60;;;4.80;;
25129;SDS011;13308;50.860;13.664;2023-05-24T10:04:39;9.38;;;4.43;;
25129;SDS011;13308;50.860;13.664;2023-05-24T10:07:08;10.48;;;4.75;;
25129;SDS011;13308;50.860;13.664;2023-05-24T10:09:36;8.82;;;4.70;;
25129;SDS011;13308;50.860;13.664;2023-05-24T10:12:02;6.88;;;5.05;;
25129;SDS011;13308;50.860;13.664;2023-05-24T10:14:32;11.57;;;4.63;;
25129;SDS011;13308;50.860;13.664;2023-05-24T10:17:00;8.68;;;4.20;;
25129;SDS011;13308;50.860;13.664;2023-05-24T10:19:29;11.20;;;4.85;;
25129;SDS011;13308;50.860;13.664;2023-05-24T10:21:54;12.43;;;5.18;;
25129;SDS011;13308;50.860;13.664;2023-05-24T10:24:22;11.25;;;5.13;;
25129;SDS011;13308;50.860;13.664;2023-05-24T10:26:49;8.57;;;4.55;;
25129;SDS011;13308;50.860;13.664;2023-05-24T10:29:20;10.00;;;4.57;;
25129;SDS011;13308;50.860;13.664;2023-05-24T10:31:51;10.20;;;4.32;;
25129;SDS011;13308;50.860;13.664;2023-05-24T10:34:17;7.75;;;4.30;;
25129;SDS011;13308;50.860;13.664;2023-05-24T10:36:44;11.02;;;5.03;;
25129;SDS011;13308;50.860;13.664;2023-05-24T10:39:10;13.55;;;5.00;;
25129;SDS011;13308;50.860;13.664;2023-05-24T10:41:39;7.85;;;4.25;;
25129;SDS011;13308;50.860;13.664;2023-05-24T10:44:11;9.10;;;4.10;;
25129;SDS011;13308;50.860;13.664;2023-05-24T10:47:00;11.88;;;5.60;;
25129;SDS011;13308;50.860;13.664;2023-05-24T10:49:27;9.65;;;4.57;;
25129;SDS011;13308;50.860;13.664;2023-05-24T10:51:59;11.88;;;4.32;;
25129;SDS011;13308;50.860;13.664;2023-05-24T10:54:26;12.45;;;4.50;;
25129;SDS011;13308;50.860;13.664;2023-05-24T10:56:51;15.35;;;4.43;;
25129;SDS011;13308;50.860;13.664;2023-05-24T10:59:30;12.45;;;4.80;;
25129;SDS011;13308;50.860;13.664;2023-05-24T11:01:58;9.57;;;4.65;;
25129;SDS011;13308;50.860;13.664;2023-05-24T11:04:25;11.23;;;4.50;;
25129;SDS011;13308;50.860;13.664;2023-05-24T11:09:33;10.43;;;3.47;;
25129;SDS011;13308;50.860;13.664;2023-05-24T11:12:05;9.48;;;4.03;;
25129;SDS011;13308;50.860;13.664;2023-05-24T11:14:33;6.13;;;3.58;;
25129;SDS011;13308;50.860;13.664;2023-05-24T11:17:01;17.00;;;4.63;;
25129;SDS011;13308;50.860;13.664;2023-05-24T11:22:19;12.18;;;3.97;;
25129;SDS011;13308;50.860;13.664;2023-05-24T11:24:46;11.18;;;4.15;;
25129;SDS011;13308;50.860;13.664;2023-05-24T11:27:12;8.40;;;3.92;;
25129;SDS011;13308;50.860;13.664;2023-05-24T11:29:44;7.60;;;3.53;;
25129;SDS011;13308;50.860;13.664;2023-05-24T11:32:15;12.25;;;4.13;;
25129;SDS011;13308;50.860;13.664;2023-05-24T11:34:41;7.60;;;3.70;;
25129;SDS011;13308;50.860;13.664;2023-05-24T11:37:09;8.68;;;4.20;;
25129;SDS011;13308;50.860;13.664;2023-05-24T11:39:35;8.75;;;4.00;;
25129;SDS011;13308;50.860;13.664;2023-05-24T11:42:05;11.85;;;5.00;;
25129;SDS011;13308;50.860;13.664;2023-05-24T11:44:31;10.80;;;4.18;;
25129;SDS011;13308;50.860;13.664;2023-05-24T11:46:58;8.32;;;4.28;;
25129;SDS011;13308;50.860;13.664;2023-05-24T11:49:27;9.13;;;4.45;;
25129;SDS011;13308;50.860;13.664;2023-05-24T11:51:53;10.82;;;4.35;;
25129;SDS011;13308;50.860;13.664;2023-05-24T11:54:20;8.35;;;3.88;;
25129;SDS011;13308;50.860;13.664;2023-05-24T11:56:46;7.35;;;3.88;;
25129;SDS011;13308;50.860;13.664;2023-05-24T11:59:15;11.57;;;4.70;;
25129;SDS011;13308;50.860;13.664;2023-05-24T12:01:46;9.57;;;4.93;;
25129;SDS011;13308;50.860;13.664;2023-05-24T12:04:12;7.93;;;3.70;;
25129;SDS011;13308;50.860;13.664;2023-05-24T12:06:38;12.00;;;4.25;;
25129;SDS011;13308;50.860;13.664;2023-05-24T12:09:05;10.65;;;4.18;;
25129;SDS011;13308;50.860;13.664;2023-05-24T12:11:41;7.40;;;3.95;;
25129;SDS011;13308;50.860;13.664;2023-05-24T12:14:13;9.98;;;4.38;;
25129;SDS011;13308;50.860;13.664;2023-05-24T12:16:41;11.13;;;4.28;;
25129;SDS011;13308;50.860;13.664;2023-05-24T12:19:07;11.52;;;4.18;;
25129;SDS011;13308;50.860;13.664;2023-05-24T12:21:39;6.88;;;4.10;;
25129;SDS011;13308;50.860;13.664;2023-05-24T12:24:12;14.80;;;4.30;;
25129;SDS011;13308;50.860;13.664;2023-05-24T12:26:40;12.05;;;4.13;;
25129;SDS011;13308;50.860;13.664;2023-05-24T12:29:06;8.32;;;4.15;;
25129;SDS011;13308;50.860;13.664;2023-05-24T12:31:33;11.18;;;4.20;;
25129;SDS011;13308;50.860;13.664;2023-05-24T12:33:59;13.27;;;5.35;;
25129;SDS011;13308;50.860;13.664;2023-05-24T12:36:24;12.13;;;4.43;;
25129;SDS011;13308;50.860;13.664;2023-05-24T12:38:51;13.23;;;4.00;;
25129;SDS011;13308;50.860;13.664;2023-05-24T12:41:17;9.80;;;4.57;;
25129;SDS011;13308;50.860;13.664;2023-05-24T12:43:42;8.70;;;4.10;;
25129;SDS011;13308;50.860;13.664;2023-05-24T12:46:08;11.27;;;4.50;;
25129;SDS011;13308;50.860;13.664;2023-05-24T12:48:34;9.07;;;4.30;;
25129;SDS011;13308;50.860;13.664;2023-05-24T12:50:59;9.13;;;4.30;;
25129;SDS011;13308;50.860;13.664;2023-05-24T12:53:26;10.07;;;4.15;;
25129;SDS011;13308;50.860;13.664;2023-05-24T12:55:51;10.57;;;4.40;;
25129;SDS011;13308;50.860;13.664;2023-05-24T12:58:20;8.27;;;4.63;;
25129;SDS011;13308;50.860;13.664;2023-05-24T13:00:45;11.38;;;4.05;;
25129;SDS011;13308;50.860;13.664;2023-05-24T13:03:14;6.40;;;3.80;;
25129;SDS011;13308;50.860;13.664;2023-05-24T13:05:39;13.48;;;4.20;;
25129;SDS011;13308;50.860;13.664;2023-05-24T13:08:05;8.48;;;3.63;;
25129;SDS011;13308;50.860;13.664;2023-05-24T13:10:30;10.50;;;4.60;;
25129;SDS011;13308;50.860;13.664;2023-05-24T13:12:56;11.50;;;4.28;;
25129;SDS011;13308;50.860;13.664;2023-05-24T13:15:21;12.48;;;3.83;;
25129;SDS011;13308;50.860;13.664;2023-05-24T13:17:48;9.50;;;4.10;;
25129;SDS011;13308;50.860;13.664;2023-05-24T13:20:13;14.40;;;4.13;;
25129;SDS011;13308;50.860;13.664;2023-05-24T13:22:39;13.00;;;4.50;;
25129;SDS011;13308;50.860;13.664;2023-05-24T13:25:05;6.43;;;3.92;;
25129;SDS011;13308;50.860;13.664;2023-05-24T13:27:31;8.40;;;4.57;;
25129;SDS011;13308;50.860;13.664;2023-05-24T13:29:57;7.20;;;4.45;;
25129;SDS011;13308;50.860;13.664;2023-05-24T13:32:22;14.18;;;4.90;;
25129;SDS011;13308;50.860;13.664;2023-05-24T13:34:48;12.35;;;4.47;;
25129;SDS011;13308;50.860;13.664;2023-05-24T13:37:13;11.38;;;4.20;;
25129;SDS011;13308;50.860;13.664;2023-05-24T13:39:40;10.32;;;4.20;;
25129;SDS011;13308;50.860;13.664;2023-05-24T13:42:06;11.60;;;4.50;;
25129;SDS011;13308;50.860;13.664;2023-05-24T13:44:32;11.48;;;4.80;;
25129;SDS011;13308;50.860;13.664;2023-05-24T13:46:59;15.23;;;3.88;;
25129;SDS011;13308;50.860;13.664;2023-05-24T13:49:26;10.88;;;4.15;;
25129;SDS011;13308;50.860;13.664;2023-05-24T13:51:51;10.15;;;4.20;;
25129;SDS011;13308;50.860;13.664;2023-05-24T13:54:17;12.02;;;4.40;;
25129;SDS011;13308;50.860;13.664;2023-05-24T13:56:42;6.20;;;3.17;;
25129;SDS011;13308;50.860;13.664;2023-05-24T13:59:09;7.68;;;4.22;;
25129;SDS011;13308;50.860;13.664;2023-05-24T14:01:35;6.85;;;4.07;;
25129;SDS011;13308;50.860;13.664;2023-05-24T14:04:01;10.65;;;3.85;;
25129;SDS011;13308;50.860;13.664;2023-05-24T14:06:27;10.48;;;3.97;;
25129;SDS011;13308;50.860;13.664;2023-05-24T14:08:53;9.18;;;4.35;;
25129;SDS011;13308;50.860;13.664;2023-05-24T14:11:18;11.95;;;3.92;;
25129;SDS011;13308;50.860;13.664;2023-05-24T14:13:44;13.77;;;4.03;;
25129;SDS011;13308;50.860;13.664;2023-05-24T14:16:09;10.57;;;4.30;;
25129;SDS011;13308;50.860;13.664;2023-05-24T14:18:35;7.70;;;3.90;;
25129;SDS011;13308;50.860;13.664;2023-05-24T14:21:00;7.80;;;3.78;;
25129;SDS011;13308;50.860;13.664;2023-05-24T14:23:26;9.73;;;4.15;;
25129;SDS011;13308;50.860;13.664;2023-05-24T14:25:51;7.25;;;4.05;;
25129;SDS011;13308;50.860;13.664;2023-05-24T14:28:17;7.43;;;4.22;;
25129;SDS011;13308;50.860;13.664;2023-05-24T14:30:43;9.15;;;4.43;;
25129;SDS011;13308;50.860;13.664;2023-05-24T14:33:08;8.65;;;4.50;;
25129;SDS011;13308;50.860;13.664;2023-05-24T14:35:35;8.82;;;4.20;;
25129;SDS011;13308;50.860;13.664;2023-05-24T14:38:04;9.02;;;4.63;;
25129;SDS011;13308;50.860;13.664;2023-05-24T14:40:31;10.85;;;4.40;;
25129;SDS011;13308;50.860;13.664;2023-05-24T14:42:58;10.65;;;4.82;;
25129;SDS011;13308;50.860;13.664;2023-05-24T14:45:24;9.27;;;4.45;;
25129;SDS011;13308;50.860;13.664;2023-05-24T14:47:49;11.10;;;4.78;;
25129;SDS011;13308;50.860;13.664;2023-05-24T14:50:15;9.68;;;4.43;;
25129;SDS011;13308;50.860;13.664;2023-05-24T14:52:40;13.45;;;4.40;;
25129;SDS011;13308;50.860;13.664;2023-05-24T14:55:05;11.48;;;5.03;;
25129;SDS011;13308;50.860;13.664;2023-05-24T14:57:31;11.35;;;4.80;;
25129;SDS011;13308;50.860;13.664;2023-05-24T14:59:57;13.43;;;4.85;;
25129;SDS011;13308;50.860;13.664;2023-05-24T15:02:22;12.70;;;4.85;;
25129;SDS011;13308;50.860;13.664;2023-05-24T15:04:47;10.30;;;4.85;;
25129;SDS011;13308;50.860;13.664;2023-05-24T15:07:13;10.43;;;5.32;;
25129;SDS011;13308;50.860;13.664;2023-05-24T15:09:38;9.85;;;4.95;;
25129;SDS011;13308;50.860;13.664;2023-05-24T15:12:03;7.72;;;4.63;;
25129;SDS011;13308;50.860;13.664;2023-05-24T15:14:29;5.07;;;3.85;;
25129;SDS011;13308;50.860;13.664;2023-05-24T15:16:55;10.68;;;4.60;;
25129;SDS011;13308;50.860;13.664;2023-05-24T15:19:20;7.18;;;4.10;;
25129;SDS011;13308;50.860;13.664;2023-05-24T15:21:45;9.60;;;4.60;;
25129;SDS011;13308;50.860;13.664;2023-05-24T15:24:11;10.93;;;5.18;;
25129;SDS011;13308;50.860;13.664;2023-05-24T15:26:37;8.82;;;4.93;;
25129;SDS011;13308;50.860;13.664;2023-05-24T15:29:03;9.02;;;4.93;;
25129;SDS011;13308;50.860;13.664;2023-05-24T15:31:28;8.80;;;4.97;;
25129;SDS011;13308;50.860;13.664;2023-05-24T15:33:54;11.65;;;4.85;;
25129;SDS011;13308;50.860;13.664;2023-05-24T15:36:19;8.50;;;4.85;;
25129;SDS011;13308;50.860;13.664;2023-05-24T15:38:44;9.00;;;4.65;;
25129;SDS011;13308;50.860;13.664;2023-05-24T15:41:10;11.68;;;4.93;;
25129;SDS011;13308;50.860;13.664;2023-05-24T15:43:35;6.50;;;4.00;;
25129;SDS011;13308;50.860;13.664;2023-05-24T15:46:00;8.73;;;4.07;;
25129;SDS011;13308;50.860;13.664;2023-05-24T15:48:26;13.25;;;4.75;;
25129;SDS011;13308;50.860;13.664;2023-05-24T15:50:51;9.57;;;4.15;;
25129;SDS011;13308;50.860;13.664;2023-05-24T15:53:16;11.63;;;4.88;;
25129;SDS011;13308;50.860;13.664;2023-05-24T15:55:42;7.28;;;4.85;;
25129;SDS011;13308;50.860;13.664;2023-05-24T15:58:07;7.85;;;3.97;;
25129;SDS011;13308;50.860;13.664;2023-05-24T16:00:33;11.20;;;4.72;;
25129;SDS011;13308;50.860;13.664;2023-05-24T16:02:58;10.38;;;4.57;;
25129;SDS011;13308;50.860;13.664;2023-05-24T16:05:23;9.52;;;4.53;;
25129;SDS011;13308;50.860;13.664;2023-05-24T16:07:50;9.57;;;4.43;;
25129;SDS011;13308;50.860;13.664;2023-05-24T16:10:16;14.70;;;5.30;;
25129;SDS011;13308;50.860;13.664;2023-05-24T16:12:41;9.73;;;5.40;;
25129;SDS011;13308;50.860;13.664;2023-05-24T16:15:06;13.40;;;5.03;;
25129;SDS011;13308;50.860;13.664;2023-05-24T16:17:32;10.38;;;5.18;;
25129;SDS011;13308;50.860;13.664;2023-05-24T16:19:58;8.95;;;5.18;;
25129;SDS011;13308;50.860;13.664;2023-05-24T16:22:23;11.00;;;5.22;;
25129;SDS011;13308;50.860;13.664;2023-05-24T16:24:49;9.05;;;4.97;;
25129;SDS011;13308;50.860;13.664;2023-05-24T16:27:14;11.52;;;4.80;;
25129;SDS011;13308;50.860;13.664;2023-05-24T16:29:40;8.13;;;5.47;;
25129;SDS011;13308;50.860;13.664;2023-05-24T16:32:05;8.68;;;4.68;;
25129;SDS011;13308;50.860;13.664;2023-05-24T16:34:31;6.60;;;4.70;;
25129;SDS011;13308;50.860;13.664;2023-05-24T16:36:57;9.48;;;5.78;;
25129;SDS011;13308;50.860;13.664;2023-05-24T16:39:22;10.85;;;4.35;;
25129;SDS011;13308;50.860;13.664;2023-05-24T16:41:48;9.02;;;5.50;;
25129;SDS011;13308;50.860;13.664;2023-05-24T16:44:13;11.20;;;5.20;;
25129;SDS011;13308;50.860;13.664;2023-05-24T16:46:42;9.80;;;4.85;;
25129;SDS011;13308;50.860;13.664;2023-05-24T16:49:08;11.20;;;4.70;;
25129;SDS011;13308;50.860;13.664;2023-05-24T16:51:34;10.10;;;4.53;;
25129;SDS011;13308;50.860;13.664;2023-05-24T16:54:00;10.13;;;4.72;;
25129;SDS011;13308;50.860;13.664;2023-05-24T16:56:26;9.27;;;5.07;;
25129;SDS011;13308;50.860;13.664;2023-05-24T16:58:51;10.93;;;4.60;;
25129;SDS011;13308;50.860;13.664;2023-05-24T17:01:16;8.93;;;4.65;;
25129;SDS011;13308;50.860;13.664;2023-05-24T17:03:42;6.93;;;5.20;;
25129;SDS011;13308;50.860;13.664;2023-05-24T17:06:07;7.70;;;5.00;;
25129;SDS011;13308;50.860;13.664;2023-05-24T17:08:33;9.80;;;5.68;;
25129;SDS011;13308;50.860;13.664;2023-05-24T17:11:00;13.15;;;5.05;;
25129;SDS011;13308;50.860;13.664;2023-05-24T17:13:26;9.10;;;4.63;;
25129;SDS011;13308;50.860;13.664;2023-05-24T17:15:52;13.82;;;5.40;;
25129;SDS011;13308;50.860;13.664;2023-05-24T17:18:19;9.00;;;4.43;;
25129;SDS011;13308;50.860;13.664;2023-05-24T17:20:57;9.15;;;4.95;;
25129;SDS011;13308;50.860;13.664;2023-05-24T17:23:25;8.43;;;5.15;;
25129;SDS011;13308;50.860;13.664;2023-05-24T17:25:51;7.28;;;4.70;;
25129;SDS011;13308;50.860;13.664;2023-05-24T17:28:17;14.20;;;5.13;;
25129;SDS011;13308;50.860;13.664;2023-05-24T17:30:42;12.05;;;5.75;;
25129;SDS011;13308;50.860;13.664;2023-05-24T17:33:08;7.07;;;4.55;;
25129;SDS011;13308;50.860;13.664;2023-05-24T17:35:33;8.23;;;4.93;;
25129;SDS011;13308;50.860;13.664;2023-05-24T17:37:58;11.02;;;5.22;;
25129;SDS011;13308;50.860;13.664;2023-05-24T17:40:24;8.90;;;5.18;;
25129;SDS011;13308;50.860;13.664;2023-05-24T17:42:50;13.75;;;5.13;;
25129;SDS011;13308;50.860;13.664;2023-05-24T17:45:15;9.90;;;5.63;;
25129;SDS011;13308;50.860;13.664;2023-05-24T17:47:40;10.35;;;4.78;;
25129;SDS011;13308;50.860;13.664;2023-05-24T17:50:06;10.02;;;5.25;;
25129;SDS011;13308;50.860;13.664;2023-05-24T17:52:33;14.93;;;6.03;;
25129;SDS011;13308;50.860;13.664;2023-05-24T17:54:58;11.60;;;5.68;;
25129;SDS011;13308;50.860;13.664;2023-05-24T17:57:23;15.05;;;5.82;;
25129;SDS011;13308;50.860;13.664;2023-05-24T17:59:49;15.63;;;6.40;;
25129;SDS011;13308;50.860;13.664;2023-05-24T18:02:14;10.40;;;5.88;;
25129;SDS011;13308;50.860;13.664;2023-05-24T18:04:40;8.85;;;6.47;;
25129;SDS011;13308;50.860;13.664;2023-05-24T18:07:05;14.30;;;8.85;;
25129;SDS011;13308;50.860;13.664;2023-05-24T18:09:30;9.63;;;7.47;;
25129;SDS011;13308;50.860;13.664;2023-05-24T18:11:56;11.43;;;7.55;;
25129;SDS011;13308;50.860;13.664;2023-05-24T18:14:21;13.18;;;7.45;;
25129;SDS011;13308;50.860;13.664;2023-05-24T18:16:47;15.43;;;6.70;;
25129;SDS011;13308;50.860;13.664;2023-05-24T18:19:12;7.50;;;5.00;;
25129;SDS011;13308;50.860;13.664;2023-05-24T18:21:37;6.85;;;5.28;;
25129;SDS011;13308;50.860;13.664;2023-05-24T18:24:03;15.52;;;5.70;;
